createdAt,value
2023-03-20T00:01:55.211Z,6.50
2023-03-20T00:04:57.968Z,7.10
2023-03-20T00:08:00.808Z,5.93
2023-03-20T00:11:03.605Z,5.23
2023-03-20T00:14:10.872Z,4.33
2023-03-20T00:17:20.191Z,4.40
2023-03-20T00:20:23.888Z,4.60
2023-03-20T00:23:27.135Z,4.30
2023-03-20T00:26:35.380Z,4.00
2023-03-20T00:29:39.580Z,4.07
2023-03-20T00:32:42.312Z,4.10
2023-03-20T00:35:45.098Z,4.37
2023-03-20T00:38:47.884Z,4.50
2023-03-20T00:41:53.895Z,4.40
2023-03-20T00:44:59.599Z,4.37
2023-03-20T00:48:03.524Z,4.60
2023-03-20T00:51:06.548Z,4.40
2023-03-20T00:54:15.503Z,4.37
2023-03-20T00:57:22.665Z,4.47
2023-03-20T01:00:47.896Z,4.70
2023-03-20T01:04:02.265Z,4.47
2023-03-20T01:07:08.264Z,5.33
2023-03-20T01:10:17.793Z,5.17
2023-03-20T01:13:23.600Z,5.43
2023-03-20T01:16:33.597Z,5.03
2023-03-20T01:19:36.526Z,5.53
2023-03-20T01:22:39.206Z,5.83
2023-03-20T01:25:42.950Z,6.47
2023-03-20T01:28:46.050Z,5.70
2023-03-20T01:31:53.620Z,5.40
2023-03-20T01:34:56.356Z,5.53
2023-03-20T01:38:01.947Z,5.30
2023-03-20T01:41:08.841Z,6.03
2023-03-20T01:44:20.585Z,5.53
2023-03-20T01:47:27.869Z,5.37
2023-03-20T01:50:32.794Z,5.80
2023-03-20T01:53:35.754Z,5.40
2023-03-20T01:56:42.738Z,6.17
2023-03-20T01:59:50.330Z,5.67
2023-03-20T02:02:54.934Z,5.37
2023-03-20T02:05:58.493Z,5.23
2023-03-20T02:09:01.761Z,5.30
2023-03-20T02:12:05.968Z,5.40
2023-03-20T02:15:10.883Z,5.70
2023-03-20T02:18:15.018Z,5.23
2023-03-20T02:21:54.622Z,5.47
2023-03-20T02:25:35.848Z,5.53
2023-03-20T02:29:01.094Z,5.50
2023-03-20T02:32:42.315Z,5.50
2023-03-20T02:36:13.348Z,5.70
2023-03-20T02:39:56.750Z,5.47
2023-03-20T02:43:09.978Z,6.03
2023-03-20T02:46:21.731Z,5.20
2023-03-20T02:49:50.577Z,5.43
2023-03-20T02:53:01.562Z,5.90
2023-03-20T02:56:13.823Z,5.30
2023-03-20T02:59:26.858Z,5.53
2023-03-20T03:02:36.808Z,5.47
2023-03-20T03:05:44.948Z,5.17
2023-03-20T03:09:00.098Z,4.60
2023-03-20T03:12:12.278Z,3.93
2023-03-20T03:15:27.077Z,3.80
2023-03-20T03:18:32.319Z,4.70
2023-03-20T03:21:38.388Z,5.40
2023-03-20T03:24:45.666Z,4.97
2023-03-20T03:27:55.281Z,5.40
2023-03-20T03:31:00.152Z,5.77
2023-03-20T03:34:03.808Z,5.40
2023-03-20T03:37:13.987Z,5.77
2023-03-20T03:40:22.968Z,5.20
2023-03-20T03:43:32.278Z,5.07
2023-03-20T03:46:41.803Z,5.63
2023-03-20T03:49:51.981Z,5.20
2023-03-20T03:52:59.711Z,5.10
2023-03-20T03:56:05.445Z,4.93
2023-03-20T03:59:15.985Z,5.60
2023-03-20T04:02:21.424Z,5.77
2023-03-20T04:05:48.671Z,5.80
2023-03-20T04:08:51.869Z,5.33
2023-03-20T04:11:57.676Z,5.33
2023-03-20T04:15:05.570Z,5.23
2023-03-20T04:18:08.294Z,5.83
2023-03-20T04:21:13.170Z,5.67
2023-03-20T04:24:18.593Z,5.37
2023-03-20T04:27:35.291Z,5.40
2023-03-20T04:30:39.333Z,5.87
2023-03-20T04:33:42.050Z,6.00
2023-03-20T04:36:45.576Z,5.87
2023-03-20T04:39:48.425Z,6.20
2023-03-20T04:43:04.392Z,6.13
2023-03-20T04:46:09.296Z,5.50
2023-03-20T04:49:12.046Z,5.03
2023-03-20T04:52:16.929Z,4.77
2023-03-20T04:55:19.722Z,4.80
2023-03-20T04:58:31.799Z,7.00
2023-03-20T05:01:38.291Z,6.90
2023-03-20T05:04:42.716Z,8.23
2023-03-20T05:07:45.531Z,8.67
2023-03-20T05:10:48.803Z,8.83
2023-03-20T05:13:56.427Z,8.00
2023-03-20T05:17:01.333Z,7.87
2023-03-20T05:20:05.214Z,7.70
2023-03-20T05:23:11.809Z,7.67
2023-03-20T05:26:14.483Z,7.73
2023-03-20T05:29:17.147Z,7.53
2023-03-20T05:32:24.185Z,6.90
2023-03-20T05:35:26.987Z,5.80
2023-03-20T05:38:34.814Z,6.37
2023-03-20T05:41:37.868Z,6.70
2023-03-20T05:44:41.117Z,6.80
2023-03-20T05:47:47.747Z,6.50
2023-03-20T05:50:50.440Z,6.90
2023-03-20T05:53:53.091Z,7.97
2023-03-20T05:56:58.913Z,7.47
2023-03-20T06:00:01.764Z,8.20
2023-03-20T06:03:07.309Z,8.10
2023-03-20T06:06:10.515Z,9.93
2023-03-20T06:09:14.307Z,14.47
2023-03-20T06:12:17.203Z,13.27
2023-03-20T06:15:25.329Z,9.23
2023-03-20T06:18:29.477Z,8.90
2023-03-20T06:21:32.143Z,7.47
2023-03-20T06:24:35.460Z,8.20
2023-03-20T06:27:41.159Z,6.80
2023-03-20T06:30:46.284Z,6.90
2023-03-20T06:33:50.863Z,6.97
2023-03-20T06:36:53.503Z,7.90
2023-03-20T06:39:56.470Z,7.77
2023-03-20T06:42:59.143Z,9.03
2023-03-20T06:46:02.046Z,7.63
2023-03-20T06:49:06.336Z,8.57
2023-03-20T06:52:09.737Z,8.20
2023-03-20T06:55:19.930Z,8.50
2023-03-20T06:58:25.889Z,8.10
2023-03-20T07:01:34.526Z,7.60
2023-03-20T07:04:38.903Z,7.17
2023-03-20T07:07:42.974Z,7.17
2023-03-20T07:10:51.828Z,6.60
2023-03-20T07:13:54.611Z,7.53
2023-03-20T07:16:57.495Z,8.17
2023-03-20T07:20:02.291Z,9.07
2023-03-20T07:23:08.512Z,9.00
2023-03-20T07:26:11.323Z,10.17
2023-03-20T07:29:17.066Z,12.03
2023-03-20T07:32:20.766Z,11.50
2023-03-20T07:35:25.716Z,11.67
2023-03-20T07:38:33.406Z,12.13
2023-03-20T07:41:41.424Z,11.27
2023-03-20T07:44:44.933Z,11.03
2023-03-20T07:47:50.747Z,11.33
2023-03-20T07:50:54.764Z,10.93
2023-03-20T07:54:09.523Z,11.03
2023-03-20T07:57:14.378Z,11.60
2023-03-20T08:00:23.535Z,11.17
2023-03-20T08:03:28.150Z,10.53
2023-03-20T08:06:44.633Z,10.83
2023-03-20T08:10:01.874Z,12.40
2023-03-20T08:13:10.546Z,11.83
2023-03-20T08:16:13.297Z,12.00
2023-03-20T08:19:15.990Z,12.43
2023-03-20T08:22:20.076Z,13.20
2023-03-20T08:25:25.920Z,11.93
2023-03-20T08:28:45.774Z,12.00
2023-03-20T08:31:49.562Z,12.70
2023-03-20T08:34:55.013Z,12.20
2023-03-20T08:37:59.067Z,11.80
2023-03-20T08:41:09.524Z,12.23
2023-03-20T08:44:12.399Z,12.37
2023-03-20T08:47:15.113Z,11.90
2023-03-20T08:50:18.193Z,11.53
2023-03-20T08:53:22.366Z,11.80
2023-03-20T08:56:25.188Z,11.87
2023-03-20T08:59:31.329Z,13.13
2023-03-20T09:02:34.514Z,12.70
2023-03-20T09:05:37.909Z,15.97
2023-03-20T09:08:46.180Z,16.80
2023-03-20T09:11:48.851Z,12.50
2023-03-20T09:14:51.853Z,12.50
2023-03-20T09:17:54.543Z,13.07
2023-03-20T09:20:57.519Z,12.57
2023-03-20T09:24:04.892Z,11.93
2023-03-20T09:27:07.710Z,11.43
2023-03-20T09:30:14.576Z,11.17
2023-03-20T09:33:18.896Z,9.83
2023-03-20T09:36:33.933Z,10.10
2023-03-20T09:39:38.019Z,10.23
2023-03-20T09:42:47.959Z,9.73
2023-03-20T09:46:03.241Z,9.77
2023-03-20T09:49:27.555Z,9.23
2023-03-20T09:52:33.680Z,9.90
2023-03-20T09:55:40.455Z,9.23
2023-03-20T09:58:45.319Z,10.20
2023-03-20T10:02:00.330Z,9.33
2023-03-20T10:05:05.923Z,9.00
2023-03-20T10:08:16.855Z,8.97
2023-03-20T10:11:56.330Z,9.00
2023-03-20T10:15:09.857Z,8.97
2023-03-20T10:18:27.592Z,9.43
2023-03-20T10:21:43.366Z,8.20
2023-03-20T10:24:49.595Z,9.17
2023-03-20T10:28:06.997Z,9.37
2023-03-20T10:31:23.350Z,7.87
2023-03-20T10:34:42.608Z,8.43
2023-03-20T10:38:00.354Z,7.77
2023-03-20T10:41:05.442Z,7.60
2023-03-20T10:44:17.532Z,7.67
2023-03-20T10:47:29.681Z,8.87
2023-03-20T10:50:41.159Z,8.07
2023-03-20T10:53:49.904Z,8.17
2023-03-20T10:57:23.236Z,9.20
2023-03-20T11:00:34.153Z,6.37
2023-03-20T11:03:39.746Z,6.70
2023-03-20T11:06:51.530Z,7.50
2023-03-20T11:10:10.496Z,6.63
2023-03-20T11:13:26.482Z,6.53
2023-03-20T11:16:36.822Z,6.87
2023-03-20T11:19:43.282Z,6.73
2023-03-20T11:22:49.009Z,7.07
2023-03-20T11:25:54.369Z,6.70
2023-03-20T11:29:01.639Z,6.70
2023-03-20T11:32:08.616Z,7.17
2023-03-20T11:35:19.198Z,8.17
2023-03-20T11:38:30.429Z,7.50
2023-03-20T11:41:40.943Z,7.77
2023-03-20T11:44:58.283Z,17.03
2023-03-20T11:48:04.082Z,9.40
2023-03-20T11:51:10.260Z,8.60
2023-03-20T11:54:18.490Z,7.87
2023-03-20T11:57:33.093Z,9.00
2023-03-20T12:00:40.777Z,7.13
2023-03-20T12:03:52.049Z,22.20
2023-03-20T12:07:03.762Z,7.43
2023-03-20T12:10:11.851Z,7.20
2023-03-20T12:13:26.193Z,6.20
2023-03-20T12:16:30.911Z,6.97
2023-03-20T12:19:36.412Z,7.60
2023-03-20T12:22:44.498Z,5.57
2023-03-20T12:26:01.048Z,6.10
2023-03-20T12:29:08.950Z,5.37
2023-03-20T12:32:18.307Z,4.73
2023-03-20T12:35:27.461Z,4.90
2023-03-20T12:38:32.713Z,5.20
2023-03-20T12:41:43.480Z,4.87
2023-03-20T12:44:54.199Z,4.80
2023-03-20T12:48:10.943Z,4.60
2023-03-20T12:51:24.409Z,4.67
2023-03-20T12:54:41.514Z,4.57
2023-03-20T12:57:56.709Z,4.60
2023-03-20T13:01:05.417Z,4.30
2023-03-20T13:04:28.239Z,4.50
2023-03-20T13:07:45.752Z,4.20
2023-03-20T13:10:57.597Z,4.23
2023-03-20T13:14:06.263Z,4.37
2023-03-20T13:17:19.336Z,4.70
2023-03-20T13:20:27.063Z,5.07
2023-03-20T13:23:38.281Z,5.00
2023-03-20T13:26:46.808Z,4.80
2023-03-20T13:29:57.511Z,4.20
2023-03-20T13:33:10.630Z,4.37
2023-03-20T13:36:25.417Z,4.87
2023-03-20T13:39:34.690Z,4.50
2023-03-20T13:42:41.952Z,4.27
2023-03-20T13:45:44.739Z,4.20
2023-03-20T13:48:48.219Z,4.10
2023-03-20T13:51:57.910Z,4.40
2023-03-20T13:55:23.631Z,4.00
2023-03-20T13:58:40.928Z,3.90
2023-03-20T14:01:56.189Z,4.20
2023-03-20T14:05:05.834Z,3.50
2023-03-20T14:08:33.197Z,4.00
2023-03-20T14:11:39.009Z,4.30
2023-03-20T14:14:44.202Z,3.60
2023-03-20T14:17:49.044Z,3.63
2023-03-20T14:20:58.162Z,3.80
2023-03-20T14:24:05.614Z,3.50
2023-03-20T14:27:29.821Z,3.83
2023-03-20T14:30:44.721Z,3.80
2023-03-20T14:33:58.704Z,3.50
2023-03-20T14:37:04.843Z,3.40
2023-03-20T14:40:20.127Z,3.43
2023-03-20T14:43:56.894Z,3.30
2023-03-20T14:47:06.394Z,3.17
2023-03-20T14:50:19.113Z,3.30
2023-03-20T14:53:24.822Z,4.00
2023-03-20T14:56:32.390Z,3.23
2023-03-20T14:59:36.634Z,3.07
2023-03-20T15:02:39.366Z,3.30
2023-03-20T15:05:42.627Z,2.93
2023-03-20T15:08:48.503Z,3.13
2023-03-20T15:11:52.618Z,3.00
2023-03-20T15:14:58.493Z,3.00
2023-03-20T15:18:05.793Z,3.30
2023-03-20T15:21:16.543Z,3.20
2023-03-20T15:24:23.020Z,3.27
2023-03-20T15:27:29.608Z,3.07
2023-03-20T15:30:37.625Z,3.00
2023-03-20T15:33:43.729Z,3.00
2023-03-20T15:36:46.613Z,2.70
2023-03-20T15:39:52.139Z,2.70
2023-03-20T15:43:02.276Z,2.80
2023-03-20T15:46:18.072Z,2.73
2023-03-20T15:49:22.989Z,3.00
2023-03-20T15:52:30.743Z,2.90
2023-03-20T15:55:33.945Z,2.40
2023-03-20T15:58:37.560Z,2.50
2023-03-20T16:01:41.921Z,2.40
2023-03-20T16:04:47.886Z,2.70
2023-03-20T16:07:50.525Z,3.40
2023-03-20T16:10:57.864Z,2.20
2023-03-20T16:14:00.738Z,2.20
2023-03-20T16:17:06.161Z,1.80
2023-03-20T16:20:15.791Z,2.50
2023-03-20T16:23:33.522Z,2.77
2023-03-20T16:26:46.797Z,2.07
2023-03-20T16:29:52.410Z,1.87
2023-03-20T16:33:00.758Z,2.27
2023-03-20T16:36:05.228Z,1.77
2023-03-20T16:39:10.668Z,2.50
2023-03-20T16:42:24.531Z,2.00
2023-03-20T16:45:31.278Z,1.70
2023-03-20T16:48:37.729Z,1.70
2023-03-20T16:51:43.932Z,1.97
2023-03-20T16:54:48.819Z,2.30
2023-03-20T16:57:55.906Z,2.70
2023-03-20T17:01:07.103Z,2.37
2023-03-20T17:04:19.895Z,2.87
2023-03-20T17:07:30.790Z,5.33
2023-03-20T17:10:33.430Z,4.70
2023-03-20T17:13:36.307Z,2.70
2023-03-20T17:16:40.314Z,11.30
2023-03-20T17:19:44.737Z,14.63
2023-03-20T17:22:47.768Z,4.83
2023-03-20T17:25:51.972Z,3.77
2023-03-20T17:28:55.567Z,3.30
2023-03-20T17:31:58.359Z,3.77
2023-03-20T17:35:02.613Z,4.13
2023-03-20T17:38:05.367Z,2.50
2023-03-20T17:41:13.843Z,2.47
2023-03-20T17:44:16.637Z,3.33
2023-03-20T17:47:20.976Z,4.63
2023-03-20T17:50:27.268Z,2.47
2023-03-20T17:53:31.359Z,2.30
2023-03-20T17:56:34.119Z,3.27
2023-03-20T17:59:37.389Z,6.43
2023-03-20T18:02:40.139Z,2.90
2023-03-20T18:05:44.205Z,2.20
2023-03-20T18:08:46.851Z,2.73
2023-03-20T18:11:49.965Z,4.17
2023-03-20T18:14:52.647Z,2.60
2023-03-20T18:17:55.589Z,2.50
2023-03-20T18:21:00.010Z,2.20
2023-03-20T18:24:03.430Z,1.77
2023-03-20T18:27:06.739Z,2.30
2023-03-20T18:30:16.504Z,2.10
2023-03-20T18:33:19.514Z,2.37
2023-03-20T18:36:25.381Z,2.40
2023-03-20T18:39:28.531Z,2.37
2023-03-20T18:42:31.264Z,2.17
2023-03-20T18:45:38.790Z,1.90
2023-03-20T18:48:42.254Z,2.13
2023-03-20T18:51:47.029Z,1.80
2023-03-20T18:54:49.834Z,2.40
2023-03-20T18:57:52.938Z,1.87
2023-03-20T19:00:57.035Z,2.10
2023-03-20T19:03:59.810Z,1.93
2023-03-20T19:07:03.931Z,2.00
2023-03-20T19:10:07.553Z,2.00
2023-03-20T19:13:13.536Z,2.03
2023-03-20T19:16:23.318Z,2.60
2023-03-20T19:19:26.116Z,2.17
2023-03-20T19:22:30.200Z,2.00
2023-03-20T19:25:33.194Z,1.97
2023-03-20T19:28:40.908Z,2.40
2023-03-20T19:31:44.058Z,1.97
2023-03-20T19:35:35.139Z,3.13
2023-03-20T19:38:14.153Z,4.27
2023-03-20T19:41:16.869Z,1.90
2023-03-20T19:44:19.780Z,1.80
2023-03-20T19:47:22.532Z,2.90
2023-03-20T19:50:30.319Z,3.07
2023-03-20T19:53:34.398Z,2.93
2023-03-20T19:56:37.061Z,3.10
2023-03-20T19:59:43.915Z,4.63
2023-03-20T20:02:47.592Z,4.30
2023-03-20T20:05:51.464Z,7.80
2023-03-20T20:08:55.465Z,7.10
2023-03-20T20:11:58.932Z,9.17
2023-03-20T20:15:01.571Z,3.07
2023-03-20T20:18:04.289Z,4.60
2023-03-20T20:24:32.181Z,4.17
2023-03-20T20:27:35.119Z,2.83
2023-03-20T20:30:39.147Z,2.43
2023-03-20T20:34:02.205Z,2.57
2023-03-20T20:38:09.099Z,2.23
2023-03-20T20:40:47.130Z,2.20
2023-03-20T20:44:14.470Z,2.40
2023-03-20T20:47:13.159Z,3.00
2023-03-20T20:50:18.240Z,2.33
2023-03-20T20:53:21.532Z,2.90
2023-03-20T20:56:26.092Z,2.47
2023-03-20T20:59:43.145Z,3.07
2023-03-20T21:02:45.856Z,2.93
2023-03-20T21:05:48.601Z,2.87
2023-03-20T21:08:51.264Z,3.03
2023-03-20T21:11:55.747Z,2.50
2023-03-20T21:14:58.858Z,2.87
2023-03-20T21:18:02.139Z,2.57
2023-03-20T21:21:05.898Z,2.60
2023-03-20T21:24:30.574Z,2.90
2023-03-20T21:27:38.230Z,2.80
2023-03-20T21:30:54.560Z,2.70
2023-03-20T21:34:05.274Z,2.43
2023-03-20T21:38:15.833Z,2.77
2023-03-20T21:40:32.161Z,3.00
2023-03-20T21:43:36.280Z,2.80
2023-03-20T21:54:24.388Z,6.00
2023-03-20T22:04:26.957Z,7.43
2023-03-20T22:14:41.010Z,6.53
2023-03-20T22:17:51.365Z,5.50
2023-03-20T22:24:51.908Z,3.70
2023-03-20T22:28:02.539Z,3.60
2023-03-20T22:31:34.524Z,3.90
2023-03-20T22:35:30.904Z,3.47
2023-03-20T22:45:01.725Z,3.33
2023-03-20T22:48:06.191Z,4.20
2023-03-20T22:51:10.721Z,5.40
2023-03-20T22:54:13.623Z,5.80
2023-03-20T22:57:16.565Z,5.90
2023-03-20T23:00:19.619Z,5.67
2023-03-20T23:03:39.923Z,4.87
2023-03-20T23:06:45.291Z,4.40
2023-03-20T23:09:54.037Z,5.20
2023-03-20T23:12:56.718Z,5.67
2023-03-20T23:15:59.474Z,6.37
2023-03-20T23:19:02.371Z,5.07
2023-03-20T23:22:06.346Z,4.57
2023-03-20T23:25:20.968Z,3.60
2023-03-20T23:28:37.582Z,4.27
2023-03-20T23:31:40.438Z,4.53
2023-03-20T23:34:45.280Z,4.63
2023-03-20T23:37:58.660Z,4.33
2023-03-20T23:41:01.977Z,4.43
2023-03-20T23:44:05.055Z,3.90
2023-03-20T23:47:17.964Z,3.73
2023-03-20T23:50:42.590Z,3.80
2023-03-20T23:53:47.174Z,4.53
2023-03-20T23:56:52.119Z,4.40
2023-03-20T23:59:54.822Z,3.80
